Time;durP1;ratioP1;P1;durP2;ratioP2;P2;SDS_P1;SDS_P2;PMS_P1;PMS_P2;Temp;Humidity;BMP_temperature;BMP_pressure;BME280_temperature;BME280_humidity;BME280_pressure;Samples;Min_cycle;Max_cycle;Signal;HPM_P1;HPM_P2
2023/07/19 00:00:18;;;;;;;3.50;2.90;;;;;;;12.58;66.05;99666.92;220162;1254;139724;-72
2023/07/19 00:05:42;;;;;;;4.30;2.50;;;;;;;12.66;66.30;99660.06;218536;1254;139928;-71
2023/07/19 00:10:47;;;;;;;2.80;2.50;;;;;;;12.68;66.28;99659.82;219732;1256;140759;-70
2023/07/19 00:15:51;;;;;;;2.40;2.20;;;;;;;12.68;66.58;99666.29;219164;1254;139831;-71
2023/07/19 00:20:55;;;;;;;5.90;2.90;;;;;;;12.58;66.45;99658.36;218035;1254;139834;-72
2023/07/19 00:26:00;;;;;;;4.00;3.60;;;;;;;12.53;66.65;99655.79;218670;1254;423835;-73
2023/07/19 00:31:05;;;;;;;5.10;2.90;;;;;;;12.53;66.88;99641.03;218895;1254;139920;-70
2023/07/19 00:36:10;;;;;;;4.90;2.90;;;;;;;12.52;66.98;99641.29;218289;1254;139328;-69
2023/07/19 00:41:14;;;;;;;3.40;3.20;;;;;;;12.48;66.87;99639.11;218696;1254;140324;-66
2023/07/19 00:46:21;;;;;;;5.10;2.90;;;;;;;12.40;67.16;99624.41;218219;1258;140166;-67
2023/07/19 00:51:26;;;;;;;9.80;3.40;;;;;;;12.29;67.24;99612.95;218993;1254;141166;-71
2023/07/19 00:56:32;;;;;;;3.80;3.40;;;;;;;12.29;67.61;99607.05;218404;1258;140437;-72
2023/07/19 01:01:36;;;;;;;6.30;4.30;;;;;;;12.28;67.85;99606.40;219262;1254;139376;-71
2023/07/19 01:06:43;;;;;;;4.70;4.20;;;;;;;12.22;67.87;99606.76;218333;1258;139732;-71
2023/07/19 01:11:47;;;;;;;5.60;3.70;;;;;;;12.11;67.94;99595.02;217940;1254;139749;-67
2023/07/19 01:16:52;;;;;;;6.10;3.10;;;;;;;12.12;68.41;99594.04;218932;1254;140259;-71
2023/07/19 01:21:56;;;;;;;4.30;3.40;;;;;;;12.10;68.52;99589.94;219848;1254;140834;-72
2023/07/19 01:27:00;;;;;;;4.50;3.00;;;;;;;12.06;68.74;99586.64;219947;1254;140760;-70
2023/07/19 01:32:24;;;;;;;6.20;3.40;;;;;;;12.02;68.95;99588.18;220842;1254;139923;-68
2023/07/19 01:37:29;;;;;;;4.50;3.90;;;;;;;12.06;69.43;99583.69;220246;1254;140505;-72
2023/07/19 01:42:33;;;;;;;4.10;3.70;;;;;;;12.11;69.43;99577.73;218284;1256;139601;-73
2023/07/19 01:47:37;;;;;;;4.10;3.10;;;;;;;12.10;69.50;99576.05;218227;1256;139435;-70
2023/07/19 01:52:42;;;;;;;4.20;3.50;;;;;;;12.07;69.56;99579.38;220635;1254;139706;-70
2023/07/19 01:57:48;;;;;;;3.80;3.40;;;;;;;12.04;69.93;99576.98;220524;1254;140839;-69
2023/07/19 02:02:53;;;;;;;4.30;3.60;;;;;;;12.10;70.29;99577.60;218851;1254;141746;-67
2023/07/19 02:07:57;;;;;;;7.20;4.40;;;;;;;12.14;70.60;99575.90;218237;1257;140032;-67
2023/07/19 02:13:01;;;;;;;8.40;5.70;;;;;;;12.12;70.44;99565.81;218466;1258;140420;-70
2023/07/19 02:18:05;;;;;;;12.80;4.80;;;;;;;12.09;70.98;99559.09;218280;1254;139659;-69
2023/07/19 02:23:09;;;;;;;5.90;4.50;;;;;;;12.10;71.12;99556.86;218740;1258;139818;-68
2023/07/19 02:28:14;;;;;;;9.30;3.90;;;;;;;12.15;71.40;99548.11;219066;1254;140246;-70
2023/07/19 02:33:18;;;;;;;10.30;5.20;;;;;;;12.22;71.40;99554.81;218214;1254;141204;-68
2023/07/19 02:38:25;;;;;;;11.90;5.50;;;;;;;12.23;71.47;99553.54;219217;1254;141000;-68
2023/07/19 02:43:30;;;;;;;8.80;5.40;;;;;;;12.22;71.70;99557.27;218588;1258;140146;-68
2023/07/19 02:48:35;;;;;;;10.10;5.30;;;;;;;12.16;71.75;99556.41;218071;1254;140431;-68
2023/07/19 02:53:40;;;;;;;9.70;5.30;;;;;;;12.12;72.02;99562.07;218618;1254;140336;-68
2023/07/19 02:58:44;;;;;;;10.10;5.50;;;;;;;12.10;72.09;99559.00;218126;1258;139726;-69
2023/07/19 03:03:49;;;;;;;5.80;4.20;;;;;;;12.08;72.22;99555.30;219035;1254;140437;-69
2023/07/19 03:08:54;;;;;;;10.50;4.50;;;;;;;12.02;72.48;99554.25;218971;1255;140391;-68
2023/07/19 03:13:58;;;;;;;8.30;4.80;;;;;;;11.98;72.40;99551.79;219177;1254;142287;-67
2023/07/19 03:19:01;;;;;;;7.80;5.70;;;;;;;12.00;72.64;99545.04;219781;1254;140469;-67
2023/07/19 03:24:06;;;;;;;7.70;4.90;;;;;;;12.03;72.78;99540.52;219657;1256;140275;-67
2023/07/19 03:29:10;;;;;;;11.50;5.90;;;;;;;12.06;72.97;99544.95;220459;1254;140529;-68
2023/07/19 03:34:15;;;;;;;7.10;5.70;;;;;;;12.10;72.81;99543.78;220861;1254;140163;-68
2023/07/19 03:39:19;;;;;;;8.20;5.70;;;;;;;12.13;72.76;99542.05;220881;1254;140512;-68
2023/07/19 03:44:25;;;;;;;6.70;6.00;;;;;;;12.19;73.00;99542.02;220566;1254;153365;-66
2023/07/19 03:49:29;;;;;;;12.20;5.80;;;;;;;12.30;72.94;99546.35;218927;1258;141491;-69
2023/07/19 03:54:34;;;;;;;6.00;5.40;;;;;;;12.39;73.09;99545.65;219290;1254;139818;-69
2023/07/19 03:59:38;;;;;;;6.10;5.40;;;;;;;12.59;73.27;99537.56;218278;1255;139811;-70
2023/07/19 04:04:41;;;;;;;7.20;5.10;;;;;;;12.80;73.64;99543.39;218280;1254;142124;-70
2023/07/19 04:09:46;;;;;;;6.30;5.70;;;;;;;13.14;73.60;99545.55;218962;1254;139843;-68
2023/07/19 04:14:51;;;;;;;8.40;6.10;;;;;;;13.41;73.16;99541.34;219499;1254;142012;-68
2023/07/19 04:19:56;;;;;;;10.20;5.90;;;;;;;13.56;73.19;99539.48;218666;1254;140465;-67
2023/07/19 04:25:01;;;;;;;6.10;5.10;;;;;;;13.69;73.27;99538.17;218580;1258;139854;-72
2023/07/19 04:30:06;;;;;;;7.80;5.10;;;;;;;13.96;73.08;99542.16;218276;1254;139429;-72
2023/07/19 04:35:12;;;;;;;9.30;6.10;;;;;;;14.90;72.30;99535.98;218491;1257;140280;-69
2023/07/19 04:40:16;;;;;;;9.10;5.30;;;;;;;15.39;71.96;99532.09;219471;1257;141235;-69
2023/07/19 04:45:21;;;;;;;6.60;4.90;;;;;;;15.84;71.42;99531.63;218620;1254;140640;-69
2023/07/19 04:50:26;;;;;;;6.80;5.50;;;;;;;16.46;70.42;99526.20;218263;1258;140431;-68
2023/07/19 04:55:30;;;;;;;7.20;4.60;;;;;;;16.98;69.52;99525.05;219728;1258;140098;-70
2023/07/19 05:00:35;;;;;;;6.50;4.60;;;;;;;17.35;69.12;99526.44;219031;1257;139932;-69
2023/07/19 05:05:39;;;;;;;8.10;4.30;;;;;;;17.57;69.06;99525.52;219373;1258;140664;-67
2023/07/19 05:10:44;;;;;;;6.90;4.60;;;;;;;18.36;68.08;99533.16;219880;1254;139806;-68
2023/07/19 05:15:49;;;;;;;5.90;5.10;;;;;;;19.27;67.02;99531.59;220253;1254;142127;-69
2023/07/19 05:20:54;;;;;;;6.90;6.10;;;;;;;19.59;65.78;99532.94;219342;1256;139410;-68
2023/07/19 05:25:58;;;;;;;8.70;5.90;;;;;;;20.28;64.82;99530.63;219626;1257;139657;-69
2023/07/19 05:31:04;;;;;;;8.40;6.30;;;;;;;22.20;62.49;99529.55;220423;1256;141208;-69
2023/07/19 05:36:08;;;;;;;8.30;6.00;;;;;;;25.50;58.04;99528.62;220756;1257;140365;-71
2023/07/19 05:41:14;;;;;;;7.10;5.30;;;;;;;28.03;53.87;99530.17;219287;1257;138854;-71
2023/07/19 05:46:19;;;;;;;4.10;3.50;;;;;;;30.45;48.95;99533.36;218067;1255;138899;-67
2023/07/19 05:51:24;;;;;;;;;;;;;;;32.10;45.62;99528.70;219885;1255;141187;-69
2023/07/19 05:56:29;;;;;;;6.50;2.70;;;;;;;33.59;41.56;99527.30;218553;1256;125379;-69
2023/07/19 06:01:33;;;;;;;6.10;3.30;;;;;;;34.73;38.90;99520.75;219935;1257;139473;-70
2023/07/19 06:06:37;;;;;;;2.50;2.30;;;;;;;35.81;37.39;99517.55;217842;1254;139047;-68
2023/07/19 06:11:42;;;;;;;5.50;2.90;;;;;;;37.05;35.46;99518.11;218370;1255;138993;-68
2023/07/19 06:16:46;;;;;;;3.80;2.30;;;;;;;35.83;34.61;99516.92;218308;1257;139757;-70
2023/07/19 06:21:51;;;;;;;5.10;1.70;;;;;;;34.29;34.12;99515.15;218109;1257;139076;-67
2023/07/19 06:26:56;;;;;;;2.30;2.10;;;;;;;33.11;33.42;99513.59;218186;1257;139026;-68
2023/07/19 06:32:01;;;;;;;2.10;1.90;;;;;;;32.82;33.32;99510.66;218734;1258;139338;-68
2023/07/19 06:37:07;;;;;;;2.40;1.30;;;;;;;32.83;32.22;99508.05;217818;1257;139203;-69
2023/07/19 06:42:11;;;;;;;3.10;1.60;;;;;;;33.58;31.80;99500.38;218220;1254;141466;-66
2023/07/19 06:47:16;;;;;;;2.50;1.70;;;;;;;34.22;30.72;99499.23;219025;1259;139379;-71
2023/07/19 06:52:20;;;;;;;1.80;1.70;;;;;;;33.74;29.94;99498.65;219009;1254;141092;-70
2023/07/19 06:57:24;;;;;;;1.90;1.60;;;;;;;33.41;29.92;99493.04;218131;1258;139625;-67
2023/07/19 07:02:29;;;;;;;1.00;1.00;;;;;;;34.33;29.38;99487.11;217975;1257;139850;-68
2023/07/19 07:07:34;;;;;;;3.00;1.00;;;;;;;34.63;28.38;99483.14;219587;1254;138717;-68
2023/07/19 07:12:38;;;;;;;1.40;1.30;;;;;;;35.61;28.18;99480.20;219614;1255;139969;-69
2023/07/19 07:17:44;;;;;;;1.10;1.00;;;;;;;35.97;26.79;99474.52;220328;1256;139123;-71
2023/07/19 07:22:48;;;;;;;11.30;1.60;;;;;;;36.68;26.56;99471.08;218596;1258;139549;-69
2023/07/19 07:27:52;;;;;;;2.90;0.70;;;;;;;37.18;25.63;99466.10;220647;1257;139658;-70
2023/07/19 07:32:56;;;;;;;1.60;1.50;;;;;;;36.59;25.32;99457.63;220170;1257;138777;-70
2023/07/19 07:37:59;;;;;;;2.30;1.30;;;;;;;35.73;24.97;99455.55;219933;1255;139858;-70
2023/07/19 07:43:04;;;;;;;3.60;1.30;;;;;;;35.10;25.34;99448.46;219528;1255;140907;-71
2023/07/19 07:48:08;;;;;;;1.80;0.80;;;;;;;34.31;25.38;99444.27;219597;1254;139846;-70
2023/07/19 07:53:12;;;;;;;1.60;1.00;;;;;;;34.04;26.56;99428.86;218003;1258;139443;-67
2023/07/19 07:58:19;;;;;;;1.70;1.10;;;;;;;34.37;26.81;99422.04;218972;1255;139768;-68
2023/07/19 08:03:24;;;;;;;3.40;1.00;;;;;;;34.43;26.79;99421.16;219187;1257;139655;-71
2023/07/19 08:08:29;;;;;;;2.70;1.00;;;;;;;34.33;26.14;99417.63;219386;1257;140315;-70
2023/07/19 08:13:34;;;;;;;2.30;1.40;;;;;;;33.65;25.48;99422.20;218222;1254;139507;-71
2023/07/19 08:18:39;;;;;;;1.60;1.10;;;;;;;32.52;25.90;99421.66;218120;1258;139728;-69
2023/07/19 08:23:43;;;;;;;3.60;1.90;;;;;;;31.40;26.35;99415.64;218792;1256;140095;-73
2023/07/19 08:28:48;;;;;;;1.10;1.10;;;;;;;30.79;27.45;99410.15;218580;1257;139624;-69
2023/07/19 08:33:53;;;;;;;1.90;1.70;;;;;;;31.08;27.68;99402.71;218211;1258;139288;-74
2023/07/19 08:38:59;;;;;;;1.50;1.00;;;;;;;31.45;27.84;99398.47;218291;1257;140076;-68
2023/07/19 08:44:04;;;;;;;1.70;1.40;;;;;;;31.85;28.14;99397.88;218320;1254;140763;-70
2023/07/19 08:49:09;;;;;;;1.50;1.40;;;;;;;32.14;27.33;99396.52;218799;1257;139275;-69
2023/07/19 08:54:14;;;;;;;2.80;1.20;;;;;;;31.56;26.82;99396.26;219079;1254;139623;-69
2023/07/19 08:59:19;;;;;;;2.90;1.50;;;;;;;30.88;27.76;99396.86;219032;1257;138596;-68
2023/07/19 09:04:24;;;;;;;3.70;1.70;;;;;;;30.83;28.04;99390.20;219106;1255;140471;-67
2023/07/19 09:09:29;;;;;;;1.10;1.00;;;;;;;31.27;28.52;99384.48;219136;1259;138918;-69
2023/07/19 09:14:37;;;;;;;1.30;1.20;;;;;;;31.33;27.91;99375.95;218951;1254;139288;-69
2023/07/19 09:19:43;;;;;;;1.50;1.40;;;;;;;31.51;27.74;99370.57;219170;1259;140080;-69
2023/07/19 09:25:01;;;;;;;3.90;1.60;;;;;;;31.54;27.77;99366.65;220246;1258;141519;-69
2023/07/19 09:30:11;;;;;;;1.70;1.30;;;;;;;31.54;27.72;99356.41;219452;1258;139795;-69
2023/07/19 09:35:26;;;;;;;2.10;1.20;;;;;;;31.86;27.48;99343.95;220005;1255;139275;-69
2023/07/19 09:40:32;;;;;;;17.70;2.70;;;;;;;32.13;27.56;99337.12;218688;1255;139419;-69
2023/07/19 09:45:40;;;;;;;3.40;1.70;;;;;;;32.14;27.35;99335.88;219726;1254;139793;-69
2023/07/19 09:50:49;;;;;;;1.60;1.50;;;;;;;31.42;26.89;99329.73;218128;1257;139789;-69
2023/07/19 09:55:56;;;;;;;5.50;1.50;;;;;;;31.23;27.49;99324.34;218936;1259;139029;-69
2023/07/19 10:01:02;;;;;;;1.60;1.50;;;;;;;31.34;27.37;99320.40;218203;1259;139568;-68
2023/07/19 10:06:06;;;;;;;;;;;;;;;31.59;27.45;99304.16;219380;1258;140001;-69
2023/07/19 10:11:23;;;;;;;4.10;1.40;;;;;;;31.26;27.19;99298.71;218670;1259;125100;-68
2023/07/19 10:16:36;;;;;;;3.20;1.60;;;;;;;31.14;27.54;99288.39;219558;1257;139817;-70
2023/07/19 10:22:08;;;;;;;4.30;2.20;;;;;;;30.78;27.65;99278.13;217985;1259;139756;-65
2023/07/19 10:27:35;;;;;;;1.70;1.60;;;;;;;30.39;27.97;99277.36;219551;1257;138887;-67
2023/07/19 10:32:39;;;;;;;3.50;1.40;;;;;;;30.80;28.45;99271.15;218273;1256;138984;-70
2023/07/19 10:37:52;;;;;;;2.80;2.30;;;;;;;30.93;27.70;99266.60;218040;1259;139149;-71
2023/07/19 10:42:57;;;;;;;2.70;1.20;;;;;;;30.83;28.22;99257.49;217954;1260;140014;-69
2023/07/19 10:48:04;;;;;;;1.50;1.40;;;;;;;31.04;28.21;99255.59;218244;1259;139042;-69
2023/07/19 10:53:09;;;;;;;1.70;1.60;;;;;;;30.81;27.85;99248.75;218167;1254;140045;-69
2023/07/19 10:58:15;;;;;;;7.60;2.60;;;;;;;30.96;28.10;99243.44;218101;1267;138860;-69
2023/07/19 11:03:23;;;;;;;1.80;1.70;;;;;;;31.22;27.63;99244.23;219190;1259;139580;-70
2023/07/19 11:08:28;;;;;;;1.40;1.30;;;;;;;30.98;27.59;99242.41;218022;1260;139010;-70
2023/07/19 11:13:34;;;;;;;2.50;1.70;;;;;;;31.05;27.43;99249.40;218004;1260;204464;-68
2023/07/19 11:18:40;;;;;;;2.10;1.90;;;;;;;31.19;27.66;99244.92;219299;1256;139043;-66
2023/07/19 11:23:44;;;;;;;1.90;1.70;;;;;;;30.78;27.31;99243.69;220592;1254;143131;-66
2023/07/19 11:28:50;;;;;;;2.10;1.90;;;;;;;30.58;27.36;99240.22;220704;1259;139973;-68
2023/07/19 11:34:08;;;;;;;8.00;2.20;;;;;;;30.45;27.21;99234.67;220421;1254;139702;-68
2023/07/19 11:39:26;;;;;;;2.40;2.00;;;;;;;30.39;27.31;99228.25;219715;1255;139028;-67
2023/07/19 11:44:31;;;;;;;25.10;6.90;;;;;;;30.29;27.94;99220.61;219108;1257;140766;-68
2023/07/19 11:49:35;;;;;;;3.60;1.80;;;;;;;30.11;27.64;99220.52;219663;1255;139290;-68
2023/07/19 11:54:39;;;;;;;5.00;2.40;;;;;;;30.01;27.79;99220.16;219976;1254;139686;-69
2023/07/19 11:59:44;;;;;;;;;;;;;;;30.00;27.54;99212.16;219020;1260;138941;-68
2023/07/19 12:04:48;;;;;;;3.90;2.20;;;;;;;30.15;27.61;99195.30;220050;1254;125627;-69
2023/07/19 12:09:55;;;;;;;1.80;1.70;;;;;;;30.10;27.79;99188.09;218942;1254;140180;-68
2023/07/19 12:15:07;;;;;;;7.00;2.20;;;;;;;29.88;27.69;99194.36;218224;1259;141191;-71
2023/07/19 12:20:12;;;;;;;1.70;1.50;;;;;;;29.61;27.79;99184.64;218279;1254;139171;-69
2023/07/19 12:25:18;;;;;;;5.40;1.70;;;;;;;29.61;27.85;99182.70;218044;1255;1010389;-67
2023/07/19 12:30:22;;;;;;;8.20;2.80;;;;;;;29.98;28.03;99171.69;218005;1256;139598;-69
2023/07/19 12:35:26;;;;;;;2.50;2.10;;;;;;;30.26;27.58;99166.79;218781;1259;140743;-67
2023/07/19 12:40:33;;;;;;;2.60;1.70;;;;;;;30.54;27.47;99159.88;218300;1254;139029;-67
2023/07/19 12:45:38;;;;;;;40.90;6.90;;;;;;;30.56;27.22;99164.75;218223;1255;140781;-69
2023/07/19 12:50:42;;;;;;;3.70;2.10;;;;;;;30.26;27.03;99160.98;218609;1255;139994;-68
2023/07/19 12:55:47;;;;;;;;;;;;;;;30.22;27.18;99153.41;218128;1254;139648;-68
2023/07/19 13:00:53;;;;;;;2.50;1.60;;;;;;;30.31;27.25;99147.58;219165;1254;124899;-68
2023/07/19 13:05:59;;;;;;;6.10;1.90;;;;;;;30.33;26.84;99149.02;218804;1254;138771;-68
2023/07/19 13:11:08;;;;;;;3.30;2.40;;;;;;;30.19;26.65;99138.63;219460;1254;140151;-70
2023/07/19 13:16:13;;;;;;;11.70;2.30;;;;;;;30.18;26.79;99140.41;220731;1254;140024;-71
2023/07/19 13:21:18;;;;;;;2.60;1.70;;;;;;;30.31;26.57;99135.09;218468;1259;139093;-70
2023/07/19 13:26:23;;;;;;;1.90;1.50;;;;;;;30.23;26.21;99129.14;220819;1254;138809;-72
2023/07/19 13:31:28;;;;;;;1.90;1.80;;;;;;;30.15;26.20;99127.27;217928;1254;139275;-68
2023/07/19 13:36:33;;;;;;;2.60;2.10;;;;;;;30.21;25.99;99123.55;220658;1254;139537;-71
2023/07/19 13:41:57;;;;;;;2.00;1.90;;;;;;;30.20;26.04;99121.34;219603;1254;138912;-67
2023/07/19 13:47:02;;;;;;;3.30;2.30;;;;;;;30.19;26.39;99115.20;219897;1254;141110;-68
2023/07/19 13:52:08;;;;;;;8.30;1.40;;;;;;;30.25;26.10;99108.27;218736;1254;139502;-75
2023/07/19 13:57:13;;;;;;;5.00;2.20;;;;;;;30.18;26.18;99097.30;218549;1256;138929;-70
2023/07/19 14:02:18;;;;;;;3.00;1.50;;;;;;;30.12;26.44;99094.50;218848;1257;140186;-70
2023/07/19 14:07:32;;;;;;;2.20;2.00;;;;;;;30.28;25.74;99094.61;218647;1254;139112;-66
2023/07/19 14:12:37;;;;;;;4.80;1.90;;;;;;;30.33;25.69;99086.63;218159;1257;139860;-68
2023/07/19 14:17:42;;;;;;;;;;;;;;;30.30;26.04;99092.73;218666;1254;138819;-64
2023/07/19 14:22:46;;;;;;;2.90;1.70;;;;;;;29.90;25.75;99089.89;218267;1255;125339;-69
2023/07/19 14:27:52;;;;;;;1.70;1.50;;;;;;;29.54;25.94;99075.52;217844;1259;139993;-74
2023/07/19 14:32:57;;;;;;;1.70;1.20;;;;;;;29.64;26.03;99075.77;219129;1254;139652;-67
2023/07/19 14:38:04;;;;;;;8.40;1.80;;;;;;;29.69;25.66;99069.20;218096;1254;140021;-70
2023/07/19 14:43:09;;;;;;;1.80;1.60;;;;;;;29.71;25.50;99068.91;218882;1254;138882;-69
2023/07/19 14:48:14;;;;;;;1.60;1.40;;;;;;;29.70;25.56;99064.20;219130;1257;138756;-70
2023/07/19 14:53:19;;;;;;;2.90;1.70;;;;;;;29.71;25.26;99059.02;218583;1254;138831;-68
2023/07/19 14:58:25;;;;;;;3.00;1.70;;;;;;;29.51;24.89;99048.40;218092;1257;139091;-70
2023/07/19 15:03:31;;;;;;;6.00;2.00;;;;;;;29.49;25.28;99046.82;220774;1254;141237;-72
2023/07/19 15:08:36;;;;;;;3.90;1.80;;;;;;;29.27;25.39;99054.56;220766;1254;140403;-72
2023/07/19 15:13:41;;;;;;;1.50;1.40;;;;;;;28.92;25.26;99053.38;220410;1254;140271;-71
2023/07/19 15:18:46;;;;;;;2.10;1.70;;;;;;;28.70;25.27;99053.54;220478;1254;139766;-74
2023/07/19 15:23:51;;;;;;;1.50;1.40;;;;;;;28.66;25.66;99049.48;220471;1254;139210;-73
2023/07/19 15:28:55;;;;;;;1.30;1.20;;;;;;;28.91;24.81;99047.71;219936;1254;139872;-72
2023/07/19 15:34:02;;;;;;;1.60;1.50;;;;;;;29.10;24.78;99046.85;220373;1254;139217;-75
2023/07/19 15:39:09;;;;;;;1.80;1.40;;;;;;;29.18;24.80;99046.62;219070;1258;139100;-71
2023/07/19 15:44:15;;;;;;;1.10;1.10;;;;;;;28.86;24.48;99048.42;219318;1254;140139;-73
2023/07/19 15:49:38;;;;;;;2.40;1.00;;;;;;;28.43;24.65;99047.23;219880;1253;138949;-74
2023/07/19 15:54:42;;;;;;;1.60;1.30;;;;;;;28.17;25.13;99043.61;219747;1254;139597;-69
2023/07/19 15:59:48;;;;;;;1.70;1.40;;;;;;;28.08;25.44;99046.91;217858;1254;139702;-70
2023/07/19 16:04:53;;;;;;;;;;;;;;;28.12;25.58;99038.59;218691;1259;139370;-70
2023/07/19 16:10:03;;;;;;;2.10;1.60;;;;;;;27.88;25.42;99034.38;218491;1258;125768;-69
2023/07/19 16:15:10;;;;;;;2.00;1.60;;;;;;;27.87;25.80;99035.67;218426;1254;140247;-69
2023/07/19 16:20:15;;;;;;;1.90;1.60;;;;;;;27.89;25.81;99031.55;218406;1254;139210;-68
2023/07/19 16:25:21;;;;;;;1.90;1.80;;;;;;;27.85;25.83;99032.67;218239;1254;138793;-71
2023/07/19 16:30:28;;;;;;;18.00;2.60;;;;;;;27.79;26.16;99026.27;218811;1254;139251;-70
2023/07/19 16:35:35;;;;;;;4.20;1.50;;;;;;;27.75;26.63;99028.46;218545;1259;139577;-70
2023/07/19 16:40:42;;;;;;;2.50;1.50;;;;;;;27.64;26.78;99028.58;219255;1254;140246;-67
2023/07/19 16:45:47;;;;;;;2.10;1.60;;;;;;;27.55;27.20;99029.41;218550;1254;139745;-67
2023/07/19 16:50:52;;;;;;;4.40;1.60;;;;;;;27.44;27.35;99029.39;219782;1253;141215;-70
2023/07/19 16:55:57;;;;;;;6.50;1.90;;;;;;;27.37;27.90;99030.10;220306;1254;141025;-69
2023/07/19 17:01:02;;;;;;;;;;;;;;;27.24;27.98;99031.73;219328;1253;140515;-68
2023/07/19 17:06:07;;;;;;;3.10;1.60;;;;;;;27.08;28.05;99029.19;220353;1254;127368;-67
2023/07/19 17:11:13;;;;;;;4.50;1.70;;;;;;;26.97;28.33;99034.83;220078;1253;139337;-71
2023/07/19 17:16:19;;;;;;;1.40;1.30;;;;;;;26.85;28.50;99028.48;220615;1253;139133;-77
2023/07/19 17:21:23;;;;;;;2.60;1.70;;;;;;;26.75;28.85;99019.58;221148;1253;139809;-73
2023/07/19 17:26:27;;;;;;;2.40;1.50;;;;;;;26.63;29.39;99026.83;220692;1253;140102;-78
2023/07/19 17:31:32;;;;;;;2.00;1.60;;;;;;;26.51;29.41;99030.04;220241;1253;139940;-76
2023/07/19 17:36:38;;;;;;;4.00;2.20;;;;;;;26.36;30.10;99032.27;219167;1252;139367;-69
2023/07/19 17:41:43;;;;;;;5.50;1.80;;;;;;;26.14;31.08;99032.35;220547;1253;139095;-72
2023/07/19 17:46:51;;;;;;;2.70;2.10;;;;;;;25.88;31.66;99031.02;218827;1252;139201;-71
2023/07/19 17:51:57;;;;;;;6.90;2.70;;;;;;;25.60;32.65;99026.19;218065;1257;139775;-71
2023/07/19 17:57:03;;;;;;;6.30;1.80;;;;;;;25.29;33.44;99024.74;218506;1254;139156;-71
2023/07/19 18:02:13;;;;;;;2.50;2.00;;;;;;;24.99;33.61;99029.53;218206;1254;139864;-71
2023/07/19 18:07:19;;;;;;;4.20;1.70;;;;;;;24.71;33.91;99029.26;219107;1253;140517;-68
2023/07/19 18:12:25;;;;;;;7.70;1.60;;;;;;;24.44;34.10;99031.36;217996;1255;139028;-74
2023/07/19 18:17:30;;;;;;;;;;;;;;;24.19;34.24;99033.38;218103;1257;139684;-67
2023/07/19 18:22:39;;;;;;;11.20;2.10;;;;;;;23.93;33.82;99041.00;218197;1257;125531;-74
2023/07/19 18:27:43;;;;;;;16.30;2.20;;;;;;;23.76;34.02;99039.09;218983;1254;139567;-73
2023/07/19 18:32:48;;;;;;;2.00;1.80;;;;;;;23.64;34.57;99042.62;218603;1257;140054;-76
2023/07/19 18:37:53;;;;;;;3.20;1.70;;;;;;;23.50;35.31;99052.15;219237;1253;139534;-77
2023/07/19 18:43:01;;;;;;;6.90;1.90;;;;;;;23.38;35.50;99054.21;218739;1254;139413;-76
2023/07/19 18:48:12;;;;;;;2.20;1.80;;;;;;;23.26;36.14;99058.33;219489;1253;140064;-69
2023/07/19 18:53:21;;;;;;;5.20;1.60;;;;;;;23.13;36.95;99067.34;218993;1253;139095;-67
2023/07/19 18:58:28;;;;;;;2.30;2.10;;;;;;;22.97;37.61;99074.73;218135;1253;139274;-74
2023/07/19 19:03:33;;;;;;;3.20;1.90;;;;;;;22.81;38.14;99070.64;218348;1254;139851;-68
2023/07/19 19:08:38;;;;;;;1.20;1.20;;;;;;;22.62;38.71;99078.14;220809;1253;140314;-67
2023/07/19 19:13:43;;;;;;;4.70;2.50;;;;;;;22.47;39.34;99094.24;219397;1253;139095;-68
2023/07/19 19:18:51;;;;;;;8.00;1.90;;;;;;;22.33;40.21;99096.33;220854;1253;140087;-67
2023/07/19 19:23:57;;;;;;;6.10;2.40;;;;;;;22.22;39.69;99085.05;220834;1253;139176;-67
2023/07/19 19:29:01;;;;;;;3.20;2.10;;;;;;;22.19;39.54;99081.81;220926;1253;140309;-66
2023/07/19 19:34:07;;;;;;;2.30;1.70;;;;;;;22.12;39.60;99094.65;219095;1253;139057;-67
2023/07/19 19:39:12;;;;;;;6.30;2.00;;;;;;;22.03;39.97;99094.34;219744;1253;139314;-68
2023/07/19 19:44:32;;;;;;;6.10;2.70;;;;;;;21.91;40.26;99078.73;218760;1254;236744;-64
2023/07/19 19:49:39;;;;;;;8.20;2.60;;;;;;;21.76;40.91;99098.23;219107;1257;139884;-67
2023/07/19 19:54:52;;;;;;;3.50;2.50;;;;;;;21.58;41.29;99110.03;219208;1253;139442;-71
2023/07/19 19:59:57;;;;;;;4.60;2.10;;;;;;;21.48;41.79;99116.65;217967;1254;139014;-66
2023/07/19 20:05:07;;;;;;;5.80;2.20;;;;;;;21.41;42.30;99135.80;217757;1254;139756;-69
2023/07/19 20:10:32;;;;;;;10.50;2.80;;;;;;;21.32;42.65;99139.59;220098;1254;140498;-67
2023/07/19 20:15:46;;;;;;;2.50;2.30;;;;;;;21.27;42.78;99147.42;219245;1254;140180;-68
2023/07/19 20:20:52;;;;;;;8.20;2.50;;;;;;;21.17;43.12;99150.80;219010;1253;139128;-68
2023/07/19 20:25:58;;;;;;;5.40;2.90;;;;;;;21.09;43.89;99141.58;218736;1253;140045;-65
2023/07/19 20:31:16;;;;;;;3.60;2.70;;;;;;;20.96;45.29;99132.98;218126;1253;138938;-66
2023/07/19 20:36:27;;;;;;;3.80;2.00;;;;;;;20.76;46.71;99135.46;218724;1254;141279;-69
2023/07/19 20:41:38;;;;;;;3.70;2.80;;;;;;;20.55;48.11;99146.48;218417;1254;139387;-64
2023/07/19 20:46:51;;;;;;;3.20;2.20;;;;;;;20.24;49.31;99132.32;218944;1255;140572;-65
2023/07/19 20:52:00;;;;;;;6.60;2.40;;;;;;;20.06;49.96;99129.17;219958;1253;138949;-67
2023/07/19 20:57:06;;;;;;;4.40;2.70;;;;;;;19.96;50.35;99118.52;220195;1254;138379;-65
2023/07/19 21:02:12;;;;;;;8.40;3.10;;;;;;;19.79;51.20;99110.70;220069;1253;139620;-70
2023/07/19 21:07:18;;;;;;;2.90;2.60;;;;;;;19.66;51.57;99101.02;220761;1253;141037;-66
2023/07/19 21:12:23;;;;;;;2.80;2.00;;;;;;;19.54;51.80;99097.98;220301;1253;139660;-66
2023/07/19 21:17:31;;;;;;;7.40;3.00;;;;;;;19.40;51.60;99107.75;220903;1254;139452;-71
2023/07/19 21:22:36;;;;;;;7.30;3.20;;;;;;;19.35;51.55;99107.45;220801;1253;140368;-70
2023/07/19 21:27:42;;;;;;;7.00;2.70;;;;;;;19.25;51.37;99109.86;220274;1253;140455;-69
2023/07/19 21:32:47;;;;;;;3.80;2.80;;;;;;;19.10;51.54;99099.89;218925;1253;139794;-69
2023/07/19 21:37:52;;;;;;;3.40;2.20;;;;;;;18.97;51.56;99101.70;218875;1253;140952;-69
2023/07/19 21:42:58;;;;;;;6.30;2.10;;;;;;;18.83;51.91;99109.69;218016;1254;139841;-68
2023/07/19 21:48:05;;;;;;;3.50;2.40;;;;;;;18.69;51.90;99108.76;219246;1253;139035;-67
2023/07/19 21:53:12;;;;;;;2.80;2.00;;;;;;;18.54;52.11;99101.77;218260;1253;139052;-67
2023/07/19 21:58:21;;;;;;;69.40;8.60;;;;;;;18.44;52.50;99098.28;218024;1254;140101;-70
2023/07/19 22:03:27;;;;;;;;;;;;;;;18.41;53.03;99119.41;218738;1253;140233;-67
2023/07/19 22:08:35;;;;;;;4.60;2.00;;;;;;;18.34;53.63;99117.60;218526;1257;126200;-68
2023/07/19 22:13:42;;;;;;;1.90;1.80;;;;;;;18.34;54.14;99113.73;219551;1254;139971;-67
2023/07/19 22:18:50;;;;;;;2.50;2.00;;;;;;;18.33;54.41;99109.00;218046;1254;138860;-68
2023/07/19 22:23:59;;;;;;;2.00;1.80;;;;;;;18.34;54.74;99106.88;218276;1256;140081;-67
2023/07/19 22:29:05;;;;;;;5.00;2.60;;;;;;;18.29;54.80;99112.70;218048;1254;139782;-68
2023/07/19 22:34:08;;;;;;;5.00;2.30;;;;;;;18.25;54.75;99121.36;217771;1254;139971;-69
2023/07/19 22:39:12;;;;;;;2.30;2.10;;;;;;;18.25;54.92;99110.30;219348;1257;140307;-70
2023/07/19 22:44:16;;;;;;;2.10;1.90;;;;;;;18.19;55.18;99110.14;218346;1254;139364;-68
2023/07/19 22:49:21;;;;;;;2.10;1.90;;;;;;;18.18;55.53;99109.89;218607;1256;139773;-71
2023/07/19 22:54:24;;;;;;;4.50;2.40;;;;;;;18.06;55.94;99099.88;219222;1255;139163;-69
2023/07/19 22:59:29;;;;;;;2.80;2.40;;;;;;;17.97;56.41;99095.70;219186;1257;140590;-70
2023/07/19 23:04:36;;;;;;;3.60;2.30;;;;;;;17.92;57.04;99089.14;219397;1254;139719;-71
2023/07/19 23:09:42;;;;;;;2.30;2.10;;;;;;;17.91;57.16;99084.53;219910;1254;139086;-69
2023/07/19 23:14:46;;;;;;;4.00;2.10;;;;;;;17.86;57.14;99081.80;220443;1257;140306;-66
2023/07/19 23:19:50;;;;;;;7.80;2.50;;;;;;;17.68;57.07;99077.55;218579;1256;139603;-65
2023/07/19 23:24:54;;;;;;;3.60;2.50;;;;;;;17.59;57.33;99082.70;219628;1254;140363;-68
2023/07/19 23:29:59;;;;;;;8.70;2.90;;;;;;;17.50;57.70;99092.49;219424;1254;141350;-69